createdAt,value
2018-08-16T00:01:33.462Z,21.00
2018-08-16T00:04:01.894Z,20.90
2018-08-16T00:06:30.326Z,20.80
2018-08-16T00:08:59.084Z,20.70
2018-08-16T00:11:27.781Z,20.60
2018-08-16T00:13:56.424Z,20.40
2018-08-16T00:16:24.898Z,20.30
2018-08-16T00:18:53.355Z,20.30
2018-08-16T00:21:21.826Z,20.30
2018-08-16T00:23:50.668Z,20.20
2018-08-16T00:26:19.189Z,20.20
2018-08-16T00:28:47.619Z,20.10
2018-08-16T00:31:16.040Z,20.10
2018-08-16T00:33:44.518Z,20.00
2018-08-16T00:36:13.085Z,20.00
2018-08-16T00:38:41.495Z,20.00
2018-08-16T00:41:09.948Z,19.90
2018-08-16T00:43:38.537Z,19.90
2018-08-16T00:46:07.047Z,19.80
2018-08-16T00:48:35.511Z,19.70
2018-08-16T00:51:04.295Z,19.60
2018-08-16T00:53:32.691Z,19.60
2018-08-16T00:56:01.142Z,19.60
2018-08-16T00:58:29.663Z,19.60
2018-08-16T01:00:58.197Z,19.50
2018-08-16T01:03:26.702Z,19.50
2018-08-16T01:05:55.142Z,19.50
2018-08-16T01:08:23.550Z,19.50
2018-08-16T01:13:25.608Z,19.40
2018-08-16T01:15:54.088Z,19.50
2018-08-16T01:18:22.528Z,19.50
2018-08-16T01:20:51.306Z,19.60
2018-08-16T01:23:19.689Z,19.50
2018-08-16T01:25:48.124Z,19.50
2018-08-16T01:28:16.596Z,19.50
2018-08-16T01:30:45.064Z,19.50
2018-08-16T01:33:13.507Z,19.50
2018-08-16T01:35:42.147Z,19.50
2018-08-16T01:38:10.739Z,19.40
2018-08-16T01:40:39.502Z,19.30
2018-08-16T01:43:07.998Z,19.40
2018-08-16T01:45:36.458Z,19.40
2018-08-16T01:48:04.956Z,19.30
2018-08-16T01:50:33.691Z,19.30
2018-08-16T01:53:02.124Z,19.30
2018-08-16T01:55:30.547Z,19.30
2018-08-16T01:57:59.003Z,19.30
2018-08-16T02:00:27.415Z,19.30
2018-08-16T02:02:55.854Z,19.30
2018-08-16T02:05:24.311Z,19.30
2018-08-16T02:07:52.748Z,19.20
2018-08-16T02:10:21.360Z,19.20
2018-08-16T02:12:49.856Z,19.10
2018-08-16T02:15:18.270Z,19.10
2018-08-16T02:17:46.827Z,19.10
2018-08-16T02:20:15.538Z,19.00
2018-08-16T02:22:44.798Z,19.00
2018-08-16T02:25:13.450Z,18.90
2018-08-16T02:27:41.906Z,18.90
2018-08-16T02:30:10.634Z,18.90
2018-08-16T02:32:39.558Z,18.90
2018-08-16T02:35:08.120Z,18.90
2018-08-16T02:37:36.568Z,18.80
2018-08-16T02:40:06.471Z,18.80
2018-08-16T02:42:34.899Z,18.70
2018-08-16T02:45:03.313Z,18.60
2018-08-16T02:47:31.813Z,18.70
2018-08-16T02:50:00.439Z,18.70
2018-08-16T02:52:28.983Z,18.60
2018-08-16T02:54:57.506Z,18.60
2018-08-16T02:57:26.198Z,18.60
2018-08-16T02:59:54.620Z,18.70
2018-08-16T03:02:23.063Z,18.60
2018-08-16T03:04:51.482Z,18.60
2018-08-16T03:07:19.994Z,18.50
2018-08-16T03:09:48.481Z,18.60
2018-08-16T03:12:16.964Z,18.60
2018-08-16T03:14:45.366Z,18.60
2018-08-16T03:17:13.808Z,18.60
2018-08-16T03:19:42.218Z,18.70
2018-08-16T03:22:10.675Z,18.60
2018-08-16T03:24:39.076Z,18.50
2018-08-16T03:27:07.538Z,18.50
2018-08-16T03:29:36.009Z,18.50
2018-08-16T03:32:04.514Z,18.50
2018-08-16T03:34:32.943Z,18.50
2018-08-16T03:37:01.412Z,18.40
2018-08-16T03:39:29.828Z,18.40
2018-08-16T03:41:58.422Z,18.30
2018-08-16T03:44:26.866Z,18.30
2018-08-16T03:46:55.294Z,18.30
2018-08-16T03:49:23.818Z,18.30
2018-08-16T03:51:52.598Z,18.30
2018-08-16T03:54:21.038Z,18.30
2018-08-16T03:56:49.446Z,18.30
2018-08-16T03:59:17.941Z,18.30
2018-08-16T04:01:46.379Z,18.40
2018-08-16T04:04:14.867Z,18.30
2018-08-16T04:06:43.273Z,18.30
2018-08-16T04:09:11.721Z,18.30
2018-08-16T04:11:40.159Z,18.20
2018-08-16T04:14:08.595Z,18.20
2018-08-16T04:16:37.007Z,18.20
2018-08-16T04:19:05.463Z,18.20
2018-08-16T04:21:33.889Z,18.30
2018-08-16T04:24:02.348Z,18.20
2018-08-16T04:26:30.806Z,18.20
2018-08-16T04:28:59.462Z,18.20
2018-08-16T04:31:28.119Z,18.20
2018-08-16T04:33:56.888Z,18.20
2018-08-16T04:36:25.329Z,18.20
2018-08-16T04:38:53.831Z,18.20
2018-08-16T04:41:22.271Z,18.20
2018-08-16T04:43:50.715Z,18.20
2018-08-16T04:46:19.206Z,18.20
2018-08-16T04:48:47.987Z,18.30
2018-08-16T04:51:16.468Z,18.30
2018-08-16T04:53:44.900Z,18.30
2018-08-16T04:56:13.312Z,18.30
2018-08-16T04:58:41.757Z,18.20
2018-08-16T05:01:10.393Z,18.20
2018-08-16T05:03:38.840Z,18.20
2018-08-16T05:06:07.307Z,18.20
2018-08-16T05:08:35.895Z,18.20
2018-08-16T05:11:04.369Z,18.30
2018-08-16T05:13:33.103Z,18.30
2018-08-16T05:16:01.526Z,18.30
2018-08-16T05:18:30.246Z,18.40
2018-08-16T05:20:58.759Z,18.40
2018-08-16T05:23:27.375Z,18.40
2018-08-16T05:25:55.834Z,18.50
2018-08-16T05:28:24.262Z,18.50
2018-08-16T05:30:52.681Z,18.60
2018-08-16T05:33:21.150Z,18.70
2018-08-16T05:35:49.557Z,18.80
2018-08-16T05:38:18.009Z,18.90
2018-08-16T05:40:46.425Z,18.90
2018-08-16T05:43:15.010Z,18.90
2018-08-16T05:45:43.861Z,19.00
2018-08-16T05:48:12.348Z,19.00
2018-08-16T05:50:40.983Z,19.10
2018-08-16T05:53:09.606Z,19.20
2018-08-16T05:55:38.092Z,19.30
2018-08-16T05:58:06.964Z,19.40
2018-08-16T06:00:35.470Z,19.40
2018-08-16T06:03:03.847Z,19.50
2018-08-16T06:05:32.313Z,19.60
2018-08-16T06:08:00.726Z,19.60
2018-08-16T06:10:29.182Z,19.60
2018-08-16T06:12:57.960Z,19.60
2018-08-16T06:15:27.022Z,19.60
2018-08-16T06:17:55.588Z,19.70
2018-08-16T06:20:24.027Z,19.80
2018-08-16T06:22:52.443Z,19.90
2018-08-16T06:25:21.094Z,20.00
2018-08-16T06:27:49.501Z,20.10
2018-08-16T06:30:18.666Z,20.10
2018-08-16T06:32:47.477Z,20.20
2018-08-16T06:35:16.198Z,20.30
2018-08-16T06:37:44.677Z,20.40
2018-08-16T06:40:15.412Z,20.50
2018-08-16T06:42:44.049Z,20.60
2018-08-16T06:45:12.481Z,20.60
2018-08-16T06:47:40.938Z,20.70
2018-08-16T06:50:09.680Z,20.80
2018-08-16T06:52:38.164Z,20.90
2018-08-16T06:55:07.484Z,21.00
2018-08-16T06:57:35.917Z,21.00
2018-08-16T07:00:05.162Z,21.10
2018-08-16T07:02:33.717Z,21.30
2018-08-16T07:05:02.149Z,21.40
2018-08-16T07:07:30.567Z,21.50
2018-08-16T07:09:59.175Z,21.60
2018-08-16T07:12:27.669Z,21.70
2018-08-16T07:14:56.262Z,21.80
2018-08-16T07:17:25.299Z,21.90
2018-08-16T07:19:53.790Z,22.00
2018-08-16T07:22:25.175Z,22.10
2018-08-16T07:24:53.739Z,22.20
2018-08-16T07:27:22.276Z,22.30
2018-08-16T07:29:51.065Z,22.40
2018-08-16T07:32:19.741Z,22.50
2018-08-16T07:34:48.228Z,22.50
2018-08-16T07:37:16.664Z,22.60
2018-08-16T07:39:45.122Z,22.70
2018-08-16T07:42:13.630Z,22.80
2018-08-16T07:44:42.096Z,22.80
2018-08-16T07:47:10.616Z,22.80
2018-08-16T07:49:39.187Z,22.70
2018-08-16T07:52:07.735Z,22.80
2018-08-16T07:54:36.447Z,23.00
2018-08-16T07:57:05.175Z,23.00
2018-08-16T07:59:33.838Z,23.10
2018-08-16T08:02:02.365Z,23.00
2018-08-16T08:04:30.832Z,23.20
2018-08-16T08:06:59.629Z,23.30
2018-08-16T08:09:28.092Z,23.40
2018-08-16T08:11:56.799Z,23.50
2018-08-16T08:14:25.270Z,23.30
2018-08-16T08:16:53.868Z,23.40
2018-08-16T08:19:25.112Z,23.60
2018-08-16T08:21:56.551Z,23.60
2018-08-16T08:24:26.678Z,23.80
2018-08-16T08:26:55.244Z,23.80
2018-08-16T08:29:25.646Z,23.90
2018-08-16T08:31:58.781Z,24.00
2018-08-16T08:34:28.395Z,24.00
2018-08-16T08:37:08.318Z,24.20
2018-08-16T08:39:36.754Z,24.20
2018-08-16T08:42:05.182Z,24.30
2018-08-16T08:44:33.802Z,24.50
2018-08-16T08:47:02.227Z,24.60
2018-08-16T08:49:30.656Z,24.60
2018-08-16T08:51:59.327Z,24.50
2018-08-16T08:54:42.345Z,24.50
2018-08-16T08:57:23.011Z,24.30
2018-08-16T08:59:51.446Z,24.30
2018-08-16T09:02:24.135Z,24.20
2018-08-16T09:04:52.651Z,24.20
2018-08-16T09:07:21.877Z,24.30
2018-08-16T09:11:05.620Z,24.40
2018-08-16T09:13:45.738Z,24.70
2018-08-16T09:16:18.534Z,24.70
2018-08-16T09:18:47.470Z,24.70
2018-08-16T09:21:17.079Z,24.90
2018-08-16T09:23:46.242Z,24.90
2018-08-16T09:26:20.044Z,24.90
2018-08-16T09:28:48.523Z,25.00
2018-08-16T09:31:28.678Z,25.20
2018-08-16T09:34:08.299Z,25.20
2018-08-16T09:36:37.349Z,25.10
2018-08-16T09:39:07.289Z,25.10
2018-08-16T09:41:35.902Z,25.10
2018-08-16T09:44:04.553Z,25.10
2018-08-16T09:46:58.095Z,25.10
2018-08-16T09:49:27.205Z,25.30
2018-08-16T09:51:56.132Z,25.40
2018-08-16T09:54:25.090Z,25.30
2018-08-16T09:56:55.280Z,25.40
2018-08-16T09:59:23.993Z,25.40
2018-08-16T10:01:52.849Z,25.60
2018-08-16T10:04:21.305Z,25.60
2018-08-16T10:06:50.049Z,25.60
2018-08-16T10:09:20.023Z,25.50
2018-08-16T10:11:49.185Z,25.70
2018-08-16T10:14:18.242Z,25.80
2018-08-16T10:16:46.998Z,25.70
2018-08-16T10:19:15.664Z,25.70
2018-08-16T10:21:44.510Z,25.70
2018-08-16T10:24:13.404Z,25.60
2018-08-16T10:26:41.935Z,25.70
2018-08-16T10:29:11.146Z,25.60
2018-08-16T10:31:39.977Z,25.60
2018-08-16T10:34:08.690Z,25.50
2018-08-16T10:36:37.139Z,25.60
2018-08-16T10:39:09.371Z,25.70
2018-08-16T10:41:38.127Z,25.60
2018-08-16T10:44:06.847Z,25.80
2018-08-16T10:46:35.303Z,25.80
2018-08-16T10:49:04.049Z,25.80
2018-08-16T10:51:32.787Z,25.80
2018-08-16T10:54:01.188Z,25.90
2018-08-16T10:56:29.916Z,26.10
2018-08-16T10:58:58.903Z,26.00
2018-08-16T11:01:27.869Z,26.00
2018-08-16T11:03:56.743Z,26.10
2018-08-16T11:06:25.158Z,26.10
2018-08-16T11:08:53.889Z,26.10
2018-08-16T11:11:22.877Z,26.10
2018-08-16T11:13:51.896Z,26.20
2018-08-16T11:16:21.394Z,26.40
2018-08-16T11:18:50.187Z,26.40
2018-08-16T11:21:19.040Z,26.40
2018-08-16T11:23:47.744Z,26.50
2018-08-16T11:26:16.461Z,26.60
2018-08-16T11:28:45.159Z,26.70
2018-08-16T11:31:14.018Z,26.80
2018-08-16T11:33:42.743Z,26.70
2018-08-16T11:36:11.494Z,26.70
2018-08-16T11:38:40.177Z,26.80
2018-08-16T11:41:08.950Z,26.80
2018-08-16T11:43:37.522Z,26.90
2018-08-16T11:46:06.299Z,27.10
2018-08-16T11:48:35.010Z,27.30
2018-08-16T11:51:03.766Z,27.50
2018-08-16T11:53:32.496Z,27.70
2018-08-16T11:56:01.206Z,27.70
2018-08-16T11:58:29.973Z,27.90
2018-08-16T12:00:58.878Z,27.90
2018-08-16T12:03:27.356Z,28.00
2018-08-16T12:05:56.067Z,28.00
2018-08-16T12:08:24.806Z,27.80
2018-08-16T12:10:53.807Z,28.00
2018-08-16T12:13:22.688Z,28.30
2018-08-16T12:15:51.463Z,28.30
2018-08-16T12:18:21.011Z,28.40
2018-08-16T12:20:49.714Z,28.60
2018-08-16T12:23:18.423Z,28.60
2018-08-16T12:25:47.151Z,28.50
2018-08-16T12:28:15.874Z,28.50
2018-08-16T12:30:44.588Z,28.60
2018-08-16T12:33:13.351Z,28.90
2018-08-16T12:35:42.084Z,28.80
2018-08-16T12:38:10.760Z,28.90
2018-08-16T12:40:39.295Z,29.00
2018-08-16T12:43:08.194Z,29.00
2018-08-16T12:45:36.912Z,29.20
2018-08-16T12:48:05.943Z,29.40
2018-08-16T12:50:34.942Z,29.20
2018-08-16T12:53:03.943Z,29.60
2018-08-16T12:55:32.919Z,29.80
2018-08-16T12:58:01.991Z,30.00
2018-08-16T13:00:31.265Z,30.00
2018-08-16T13:02:59.961Z,30.10
2018-08-16T13:05:29.010Z,30.40
2018-08-16T13:07:58.043Z,30.60
2018-08-16T13:10:27.026Z,30.80
2018-08-16T13:12:56.026Z,30.90
2018-08-16T13:15:25.028Z,31.10
2018-08-16T13:17:53.978Z,31.10
2018-08-16T13:20:23.048Z,31.10
2018-08-16T13:22:52.033Z,31.10
2018-08-16T13:25:21.300Z,31.40
2018-08-16T13:27:50.014Z,31.40
2018-08-16T13:30:18.998Z,31.70
2018-08-16T13:32:48.134Z,32.00
2018-08-16T13:35:17.163Z,32.10
2018-08-16T13:37:45.908Z,32.20
2018-08-16T13:40:14.678Z,32.40
2018-08-16T13:42:43.477Z,32.50
2018-08-16T13:45:12.254Z,32.70
2018-08-16T13:47:40.943Z,32.90
2018-08-16T13:50:09.675Z,32.80
2018-08-16T13:52:38.387Z,33.00
2018-08-16T13:55:07.280Z,33.10
2018-08-16T13:57:36.251Z,33.30
2018-08-16T14:00:05.941Z,33.60
2018-08-16T14:02:34.691Z,33.60
2018-08-16T14:05:03.430Z,33.90
2018-08-16T14:07:32.189Z,34.00
2018-08-16T14:10:01.326Z,34.10
2018-08-16T14:12:30.046Z,33.90
2018-08-16T14:14:59.110Z,34.00
2018-08-16T14:17:27.534Z,34.00
2018-08-16T14:19:56.278Z,34.00
2018-08-16T14:22:25.028Z,34.10
2018-08-16T14:24:54.043Z,34.40
2018-08-16T14:27:22.751Z,34.60
2018-08-16T14:29:51.522Z,34.50
2018-08-16T14:32:21.257Z,34.70
2018-08-16T14:34:50.143Z,34.70
2018-08-16T14:37:19.130Z,34.90
2018-08-16T14:39:48.142Z,35.00
2018-08-16T14:42:17.177Z,35.00
2018-08-16T14:44:46.243Z,35.00
2018-08-16T14:47:15.283Z,35.00
2018-08-16T14:49:44.009Z,34.70
2018-08-16T14:52:12.711Z,34.60
2018-08-16T14:54:41.411Z,34.60
2018-08-16T14:57:10.217Z,34.60
2018-08-16T14:59:39.230Z,34.50
2018-08-16T15:02:08.357Z,34.50
2018-08-16T15:04:37.118Z,34.70
2018-08-16T15:07:06.064Z,34.70
2018-08-16T15:09:34.785Z,34.90
2018-08-16T15:12:03.726Z,35.10
2018-08-16T15:14:32.464Z,36.70
2018-08-16T15:17:01.159Z,37.80
2018-08-16T15:19:29.696Z,36.80
2018-08-16T15:21:58.375Z,36.00
2018-08-16T15:24:27.107Z,35.30
2018-08-16T15:26:56.119Z,34.60
2018-08-16T15:29:24.833Z,34.20
2018-08-16T15:31:53.824Z,33.70
2018-08-16T15:34:22.503Z,33.40
2018-08-16T15:36:51.271Z,33.10
2018-08-16T15:39:21.288Z,32.90
2018-08-16T15:41:50.306Z,32.70
2018-08-16T15:44:19.372Z,32.30
2018-08-16T15:46:48.136Z,32.00
2018-08-16T15:49:17.149Z,31.70
2018-08-16T15:51:46.146Z,31.50
2018-08-16T15:54:15.150Z,31.00
2018-08-16T15:56:43.877Z,30.70
2018-08-16T15:59:12.587Z,30.30
2018-08-16T16:01:41.538Z,30.00
2018-08-16T16:04:10.274Z,29.80
2018-08-16T16:06:39.304Z,29.70
2018-08-16T16:09:09.136Z,29.60
2018-08-16T16:11:37.565Z,29.40
2018-08-16T16:14:06.905Z,29.30
2018-08-16T16:16:35.707Z,29.30
2018-08-16T16:19:04.423Z,29.00
2018-08-16T16:21:33.319Z,28.90
2018-08-16T16:24:02.335Z,28.70
2018-08-16T16:26:31.361Z,28.60
2018-08-16T16:29:00.336Z,28.60
2018-08-16T16:31:29.377Z,28.50
2018-08-16T16:33:58.368Z,28.50
2018-08-16T16:36:27.398Z,28.50
2018-08-16T16:38:56.394Z,28.50
2018-08-16T16:41:25.468Z,28.50
2018-08-16T16:43:54.292Z,29.10
2018-08-16T16:46:23.323Z,28.90
2018-08-16T16:48:52.676Z,28.90
2018-08-16T16:51:21.769Z,28.80
2018-08-16T16:53:50.440Z,28.70
2018-08-16T16:56:19.414Z,28.50
2018-08-16T16:58:48.418Z,28.40
2018-08-16T17:01:17.435Z,28.10
2018-08-16T17:03:46.502Z,28.40
2018-08-16T17:06:15.236Z,29.60
2018-08-16T17:08:43.943Z,30.00
2018-08-16T17:11:12.707Z,29.30
2018-08-16T17:13:41.704Z,28.80
2018-08-16T17:16:10.579Z,28.40
2018-08-16T17:18:39.419Z,28.10
2018-08-16T17:21:08.375Z,27.90
2018-08-16T17:23:37.440Z,27.60
2018-08-16T17:26:06.634Z,27.50
2018-08-16T17:28:35.466Z,27.20
2018-08-16T17:31:04.511Z,27.10
2018-08-16T17:33:33.202Z,26.90
2018-08-16T17:36:01.979Z,26.80
2018-08-16T17:38:30.697Z,26.80
2018-08-16T17:40:59.442Z,26.70
2018-08-16T17:43:28.354Z,26.60
2018-08-16T17:45:57.582Z,26.60
2018-08-16T17:48:26.275Z,26.60
2018-08-16T17:50:55.004Z,26.50
2018-08-16T17:53:23.810Z,26.40
2018-08-16T17:55:52.510Z,26.40
2018-08-16T17:58:21.576Z,26.30
2018-08-16T18:00:50.526Z,26.20
2018-08-16T18:03:19.560Z,26.10
2018-08-16T18:05:48.760Z,26.00
2018-08-16T18:08:17.559Z,26.00
2018-08-16T18:10:46.267Z,25.90
2018-08-16T18:13:15.096Z,25.90
2018-08-16T18:15:43.904Z,25.80
2018-08-16T18:18:12.581Z,25.70
2018-08-16T18:20:41.379Z,25.60
2018-08-16T18:23:10.142Z,25.40
2018-08-16T18:25:38.889Z,25.40
2018-08-16T18:28:07.580Z,25.30
2018-08-16T18:30:36.680Z,24.80
2018-08-16T18:33:05.555Z,25.20
2018-08-16T18:35:34.002Z,25.10
2018-08-16T18:38:02.759Z,25.00
2018-08-16T18:40:31.588Z,25.00
2018-08-16T18:43:00.551Z,24.90
2018-08-16T18:45:29.621Z,24.80
2018-08-16T18:47:58.294Z,24.80
2018-08-16T18:50:27.099Z,24.80
2018-08-16T18:52:55.821Z,24.70
2018-08-16T18:55:24.507Z,24.60
2018-08-16T18:57:53.506Z,24.50
2018-08-16T19:00:22.047Z,24.50
2018-08-16T19:02:50.743Z,24.40
2018-08-16T19:05:19.463Z,24.30
2018-08-16T19:07:48.804Z,24.20
2018-08-16T19:10:17.676Z,24.20
2018-08-16T19:12:46.594Z,24.20
2018-08-16T19:15:15.694Z,24.20
2018-08-16T19:17:44.718Z,24.20
2018-08-16T19:20:13.567Z,24.10
2018-08-16T19:22:42.536Z,24.10
2018-08-16T19:25:11.686Z,24.00
2018-08-16T19:27:40.464Z,24.00
2018-08-16T19:30:09.218Z,23.90
2018-08-16T19:32:37.975Z,23.80
2018-08-16T19:35:06.757Z,23.80
2018-08-16T19:37:35.469Z,23.70
2018-08-16T19:40:04.683Z,23.70
2018-08-16T19:42:33.671Z,23.70
2018-08-16T19:45:02.243Z,23.60
2018-08-16T19:47:31.085Z,23.60
2018-08-16T19:49:59.925Z,23.50
2018-08-16T19:52:28.739Z,23.50
2018-08-16T19:54:57.428Z,23.50
2018-08-16T19:57:26.014Z,23.40
2018-08-16T19:59:54.836Z,23.40
2018-08-16T20:02:23.560Z,23.40
2018-08-16T20:04:52.588Z,23.40
2018-08-16T20:07:22.092Z,23.40
2018-08-16T20:09:50.902Z,23.40
2018-08-16T20:12:19.603Z,23.50
2018-08-16T20:14:48.970Z,23.40
2018-08-16T20:17:17.883Z,23.40
2018-08-16T20:19:46.614Z,23.40
2018-08-16T20:22:18.254Z,23.40
2018-08-16T20:24:47.673Z,23.30
2018-08-16T20:27:16.783Z,23.20
2018-08-16T20:29:46.539Z,23.20
2018-08-16T20:32:15.765Z,23.20
2018-08-16T20:34:45.054Z,23.10
2018-08-16T20:37:13.581Z,23.10
2018-08-16T20:39:42.303Z,23.10
2018-08-16T20:42:11.093Z,23.10
2018-08-16T20:44:39.798Z,23.00
2018-08-16T20:47:09.882Z,23.00
2018-08-16T20:49:38.639Z,23.00
2018-08-16T20:52:07.718Z,23.00
2018-08-16T20:54:36.152Z,23.00
2018-08-16T20:57:04.822Z,23.00
2018-08-16T20:59:33.813Z,22.90
2018-08-16T21:02:02.242Z,23.00
2018-08-16T21:04:31.010Z,22.90
2018-08-16T21:06:59.638Z,22.90
2018-08-16T21:09:28.043Z,22.80
2018-08-16T21:11:56.687Z,22.80
2018-08-16T21:14:25.634Z,22.90
2018-08-16T21:16:54.332Z,22.90
2018-08-16T21:19:23.063Z,22.90
2018-08-16T21:21:51.828Z,22.90
2018-08-16T21:24:21.599Z,22.80
2018-08-16T21:26:50.112Z,22.70
2018-08-16T21:29:18.719Z,22.70
2018-08-16T21:31:47.999Z,22.70
2018-08-16T21:34:19.555Z,22.60
2018-08-16T21:36:48.011Z,22.70
2018-08-16T21:39:16.701Z,22.70
2018-08-16T21:41:45.145Z,22.70
2018-08-16T21:44:13.830Z,22.70
2018-08-16T21:46:42.287Z,22.80
2018-08-16T21:49:11.116Z,22.90
2018-08-16T21:51:39.870Z,22.90
2018-08-16T21:54:08.314Z,22.90
2018-08-16T21:56:37.219Z,22.80
2018-08-16T21:59:05.901Z,22.80
2018-08-16T22:01:34.958Z,22.70
2018-08-16T22:04:03.649Z,22.70
2018-08-16T22:06:43.451Z,22.70
2018-08-16T22:09:12.879Z,22.70
2018-08-16T22:11:41.839Z,22.70
2018-08-16T22:14:10.263Z,22.70
2018-08-16T22:16:38.706Z,22.70
2018-08-16T22:19:07.192Z,22.60
2018-08-16T22:21:36.166Z,22.50
2018-08-16T22:24:05.004Z,22.50
2018-08-16T22:26:33.780Z,22.40
2018-08-16T22:29:02.197Z,22.30
2018-08-16T22:31:30.839Z,22.30
2018-08-16T22:33:59.279Z,22.20
2018-08-16T22:36:28.211Z,22.10
2018-08-16T22:38:56.821Z,22.10
2018-08-16T22:41:25.271Z,22.10
2018-08-16T22:43:53.767Z,22.10
2018-08-16T22:46:22.195Z,22.00
2018-08-16T22:48:50.770Z,21.90
2018-08-16T22:51:19.232Z,21.90
2018-08-16T22:53:47.760Z,21.90
2018-08-16T22:56:16.383Z,21.80
2018-08-16T22:58:47.644Z,21.70
2018-08-16T23:01:17.118Z,21.60
2018-08-16T23:03:47.522Z,21.60
2018-08-16T23:06:16.608Z,21.50
2018-08-16T23:08:45.126Z,21.40
2018-08-16T23:11:13.908Z,21.30
2018-08-16T23:13:42.510Z,21.30
2018-08-16T23:16:11.018Z,21.20
2018-08-16T23:18:39.705Z,21.10
2018-08-16T23:21:08.206Z,21.00
2018-08-16T23:23:36.827Z,21.00
2018-08-16T23:26:05.395Z,21.00
2018-08-16T23:28:34.136Z,20.90
2018-08-16T23:31:02.835Z,20.80
2018-08-16T23:33:31.367Z,20.80
2018-08-16T23:35:59.875Z,20.80
2018-08-16T23:38:28.576Z,20.70
2018-08-16T23:40:57.290Z,20.70
2018-08-16T23:43:26.172Z,20.60
2018-08-16T23:45:54.846Z,20.60
2018-08-16T23:48:32.711Z,20.60
2018-08-16T23:51:01.313Z,20.50
2018-08-16T23:53:30.204Z,20.50
2018-08-16T23:55:59.064Z,20.50
2018-08-16T23:58:28.159Z,20.50
